Time;durP1;ratioP1;P1;durP2;ratioP2;P2;SDS_P1;SDS_P2;PMS_P1;PMS_P2;Temp;Humidity;BMP_temperature;BMP_pressure;BME280_temperature;BME280_humidity;BME280_pressure;Samples;Min_cycle;Max_cycle;Signal;HPM_P1;HPM_P2
2021/04/01 00:00:09;;;;;;;38.50;30.80;;;;;;;;;;5010897;28;20230;-71
2021/04/01 00:02:54;;;;;;;42.80;31.53;;;;;;;;;;5011126;28;20206;-71
2021/04/01 00:05:39;;;;;;;43.67;31.97;;;;;;;;;;5010957;28;20226;-71
2021/04/01 00:08:23;;;;;;;40.63;31.80;;;;;;;;;;5014454;28;20222;-72
2021/04/01 00:11:08;;;;;;;39.40;30.27;;;;;;;;;;5015171;28;20242;-72
2021/04/01 00:13:53;;;;;;;40.53;30.60;;;;;;;;;;5015107;28;20406;-71
2021/04/01 00:16:37;;;;;;;38.97;30.00;;;;;;;;;;5014583;28;20716;-71
2021/04/01 00:19:23;;;;;;;36.30;30.07;;;;;;;;;;5014741;28;20712;-72
2021/04/01 00:22:07;;;;;;;38.77;30.13;;;;;;;;;;5014921;28;20202;-71
2021/04/01 00:24:52;;;;;;;35.87;29.70;;;;;;;;;;5014971;28;20289;-71
2021/04/01 00:27:36;;;;;;;37.60;29.83;;;;;;;;;;5014492;28;20214;-71
2021/04/01 00:30:22;;;;;;;36.77;30.17;;;;;;;;;;5014602;28;20711;-72
2021/04/01 00:33:06;;;;;;;40.23;30.60;;;;;;;;;;5014831;28;20206;-71
2021/04/01 00:35:51;;;;;;;46.63;33.00;;;;;;;;;;5015437;28;20584;-71
2021/04/01 00:38:36;;;;;;;43.05;36.58;;;;;;;;;;5013413;28;20404;-71
2021/04/01 00:41:20;;;;;;;42.00;33.27;;;;;;;;;;5014439;28;20206;-71
2021/04/01 00:44:05;;;;;;;39.87;31.93;;;;;;;;;;5014632;28;20199;-71
2021/04/01 00:46:50;;;;;;;43.17;31.93;;;;;;;;;;5014039;28;20234;-72
2021/04/01 00:49:36;;;;;;;40.53;31.20;;;;;;;;;;5014508;28;20607;-71
2021/04/01 00:52:24;;;;;;;40.83;32.23;;;;;;;;;;5014120;28;20238;-71
2021/04/01 00:55:10;;;;;;;41.97;31.80;;;;;;;;;;5014215;28;20638;-71
2021/04/01 00:57:56;;;;;;;38.97;31.90;;;;;;;;;;5013731;28;20202;-71
2021/04/01 01:00:41;;;;;;;42.87;32.60;;;;;;;;;;5014260;28;20298;-72
2021/04/01 01:03:25;;;;;;;43.03;31.47;;;;;;;;;;5014183;28;20226;-71
2021/04/01 01:06:10;;;;;;;38.73;31.53;;;;;;;;;;5013434;28;20258;-71
2021/04/01 01:08:55;;;;;;;40.87;31.43;;;;;;;;;;5014016;28;20261;-71
2021/04/01 01:11:39;;;;;;;39.30;30.70;;;;;;;;;;5014398;28;20202;-71
2021/04/01 01:14:24;;;;;;;39.27;31.03;;;;;;;;;;5013565;28;20222;-71
2021/04/01 01:17:09;;;;;;;39.23;30.77;;;;;;;;;;5013324;28;20297;-71
2021/04/01 01:19:53;;;;;;;43.07;32.63;;;;;;;;;;5013700;28;20218;-71
2021/04/01 01:22:38;;;;;;;46.38;33.38;;;;;;;;;;5013362;28;20419;-71
2021/04/01 01:25:23;;;;;;;45.43;31.07;;;;;;;;;;5013842;28;20222;-71
2021/04/01 01:28:08;;;;;;;44.70;32.47;;;;;;;;;;5013171;28;20205;-71
2021/04/01 01:30:53;;;;;;;45.57;32.53;;;;;;;;;;5013692;28;20683;-71
2021/04/01 01:33:41;;;;;;;47.67;32.10;;;;;;;;;;5013772;28;20199;-71
2021/04/01 01:36:25;;;;;;;46.00;32.37;;;;;;;;;;5013285;28;20281;-71
2021/04/01 01:39:10;;;;;;;43.00;31.27;;;;;;;;;;5013604;28;20229;-71
2021/04/01 01:41:55;;;;;;;51.90;32.30;;;;;;;;;;5013555;28;20334;-71
2021/04/01 01:44:40;;;;;;;46.43;33.63;;;;;;;;;;5013313;28;20653;-71
2021/04/01 01:47:24;;;;;;;45.30;32.20;;;;;;;;;;5012920;28;20246;-71
2021/04/01 01:50:10;;;;;;;47.30;32.17;;;;;;;;;;5013291;28;20257;-71
2021/04/01 01:52:54;;;;;;;41.30;32.10;;;;;;;;;;5013059;28;20341;-71
2021/04/01 01:55:39;;;;;;;39.80;32.33;;;;;;;;;;5013119;28;20264;-71
2021/04/01 01:58:25;;;;;;;43.57;32.37;;;;;;;;;;5012819;28;20206;-71
2021/04/01 02:01:09;;;;;;;46.43;33.07;;;;;;;;;;5012866;28;20245;-71
2021/04/01 02:03:54;;;;;;;53.20;37.47;;;;;;;;;;5013009;28;20768;-71
2021/04/01 02:06:38;;;;;;;53.27;39.63;;;;;;;;;;5012346;28;20285;-71
2021/04/01 02:09:23;;;;;;;57.28;45.95;;;;;;;;;;5011955;28;20470;-71
2021/04/01 02:12:08;;;;;;;57.87;43.73;;;;;;;;;;5012881;28;20265;-71
2021/04/01 02:14:54;;;;;;;59.43;43.10;;;;;;;;;;5012456;28;20295;-71
2021/04/01 02:17:38;;;;;;;62.20;45.40;;;;;;;;;;5012082;28;20210;-71
2021/04/01 02:20:23;;;;;;;64.90;44.73;;;;;;;;;;5012823;28;20617;-71
2021/04/01 02:23:08;;;;;;;60.77;43.20;;;;;;;;;;5012729;28;20198;-71
2021/04/01 02:25:54;;;;;;;55.03;40.70;;;;;;;;;;5012622;28;20303;-71
2021/04/01 02:28:38;;;;;;;62.90;42.73;;;;;;;;;;5012721;28;20206;-71
2021/04/01 02:31:24;;;;;;;62.93;44.90;;;;;;;;;;5012302;28;20253;-71
2021/04/01 02:34:08;;;;;;;58.80;43.20;;;;;;;;;;5012656;28;20218;-71
2021/04/01 02:36:53;;;;;;;64.37;45.47;;;;;;;;;;5011788;28;20574;-71
2021/04/01 02:39:37;;;;;;;60.87;45.27;;;;;;;;;;5012332;28;20276;-71
2021/04/01 02:42:22;;;;;;;64.67;45.80;;;;;;;;;;5012085;28;20333;-71
2021/04/01 02:45:07;;;;;;;62.70;44.93;;;;;;;;;;5012091;28;20227;-71
2021/04/01 02:47:52;;;;;;;63.87;46.23;;;;;;;;;;5011776;28;20680;-71
2021/04/01 02:50:37;;;;;;;63.07;46.93;;;;;;;;;;5012131;28;20249;-71
2021/04/01 02:53:22;;;;;;;65.97;47.27;;;;;;;;;;5012319;28;20626;-71
2021/04/01 02:56:06;;;;;;;65.45;52.15;;;;;;;;;;5010374;28;20785;-71
2021/04/01 02:58:50;;;;;;;67.53;47.27;;;;;;;;;;5011985;28;20222;-71
2021/04/01 03:01:36;;;;;;;62.03;44.03;;;;;;;;;;5012008;28;20255;-71
2021/04/01 03:04:21;;;;;;;61.30;45.20;;;;;;;;;;5011600;28;20222;-71
2021/04/01 03:07:06;;;;;;;65.03;45.40;;;;;;;;;;5011223;28;20250;-70
2021/04/01 03:09:50;;;;;;;61.93;45.53;;;;;;;;;;5021276;28;20206;-71
2021/04/01 03:12:35;;;;;;;61.80;44.57;;;;;;;;;;4992415;28;20468;-72
2021/04/01 03:15:20;;;;;;;67.37;48.97;;;;;;;;;;4991763;28;20271;-72
2021/04/01 03:18:04;;;;;;;70.50;48.83;;;;;;;;;;5006380;28;20207;-70
2021/04/01 03:20:50;;;;;;;64.23;45.70;;;;;;;;;;4992002;28;20313;-70
2021/04/01 03:23:35;;;;;;;66.50;45.50;;;;;;;;;;5007823;28;20702;-70
2021/04/01 03:26:19;;;;;;;59.50;46.85;;;;;;;;;;5010321;28;20840;-70
2021/04/01 03:29:04;;;;;;;59.20;43.13;;;;;;;;;;5011485;28;20206;-70
2021/04/01 03:31:48;;;;;;;62.53;43.80;;;;;;;;;;5011491;28;20309;-70
2021/04/01 03:34:33;;;;;;;59.87;44.13;;;;;;;;;;5005258;28;20265;-70
2021/04/01 03:37:18;;;;;;;60.97;44.60;;;;;;;;;;4994434;28;20584;-70
2021/04/01 03:40:03;;;;;;;61.50;48.28;;;;;;;;;;5030032;28;20565;-70
2021/04/01 03:42:47;;;;;;;61.17;44.53;;;;;;;;;;5015884;28;20217;-71
2021/04/01 03:45:32;;;;;;;63.60;45.67;;;;;;;;;;5008572;28;20327;-70
2021/04/01 03:48:16;;;;;;;62.17;44.50;;;;;;;;;;4991228;28;20269;-70
2021/04/01 03:51:01;;;;;;;57.27;43.30;;;;;;;;;;5002237;28;20276;-70
2021/04/01 03:53:46;;;;;;;60.97;45.27;;;;;;;;;;5011184;28;20217;-70
2021/04/01 03:56:30;;;;;;;62.77;47.03;;;;;;;;;;5010626;28;20256;-70
2021/04/01 03:59:16;;;;;;;64.63;46.27;;;;;;;;;;5011166;28;20217;-70
2021/04/01 04:05:11;;;;;;;61.17;46.73;;;;;;;;;;5010648;28;20220;-70
2021/04/01 04:08:17;;;;;;;68.90;47.07;;;;;;;;;;5010238;28;20227;-70
2021/04/01 04:11:13;;;;;;;62.63;47.87;;;;;;;;;;5010978;28;20222;-70
2021/04/01 04:14:02;;;;;;;67.17;46.80;;;;;;;;;;5010576;28;20381;-70
2021/04/01 04:16:47;;;;;;;68.97;48.80;;;;;;;;;;5009939;28;20675;-71
2021/04/01 04:19:32;;;;;;;69.80;49.17;;;;;;;;;;5010768;28;20219;-70
2021/04/01 04:22:16;;;;;;;68.20;47.53;;;;;;;;;;5010138;28;20731;-70
2021/04/01 04:25:01;;;;;;;65.85;50.28;;;;;;;;;;5010599;28;20404;-71
2021/04/01 04:30:47;;;;;;;66.20;45.37;;;;;;;;;;5010511;28;20198;-70
2021/04/01 04:33:32;;;;;;;65.93;45.67;;;;;;;;;;5010436;28;20198;-70
2021/04/01 04:36:16;;;;;;;63.67;45.60;;;;;;;;;;5009832;28;21043;-70
2021/04/01 04:39:01;;;;;;;61.53;44.83;;;;;;;;;;5009755;28;20209;-70
2021/04/01 04:41:45;;;;;;;65.70;43.97;;;;;;;;;;5010655;28;20233;-70
2021/04/01 04:44:33;;;;;;;63.33;44.97;;;;;;;;;;5010080;28;20226;-70
2021/04/01 04:47:17;;;;;;;62.20;43.77;;;;;;;;;;5010207;28;20200;-70
2021/04/01 04:50:02;;;;;;;63.97;45.30;;;;;;;;;;5010348;28;20349;-70
2021/04/01 04:52:46;;;;;;;65.80;45.23;;;;;;;;;;5011104;28;20248;-70
2021/04/01 04:55:31;;;;;;;66.83;44.80;;;;;;;;;;5014289;28;20270;-70
2021/04/01 04:58:19;;;;;;;64.90;44.00;;;;;;;;;;5013686;28;20206;-70
2021/04/01 05:01:08;;;;;;;69.40;45.03;;;;;;;;;;5013626;28;20250;-70
2021/04/01 05:06:56;;;;;;;67.20;44.53;;;;;;;;;;5009540;28;20254;-70
2021/04/01 05:09:40;;;;;;;64.80;44.93;;;;;;;;;;5012956;28;20326;-70
2021/04/01 05:12:25;;;;;;;65.03;44.27;;;;;;;;;;5014157;28;20266;-70
2021/04/01 05:15:10;;;;;;;64.33;44.33;;;;;;;;;;5013577;28;20271;-71
2021/04/01 05:18:06;;;;;;;69.27;46.00;;;;;;;;;;5013353;28;20612;-70
2021/04/01 05:20:51;;;;;;;68.13;43.97;;;;;;;;;;5013534;28;20718;-70
2021/04/01 05:23:38;;;;;;;62.80;44.87;;;;;;;;;;5012847;28;20226;-70
2021/04/01 05:29:28;;;;;;;64.73;44.30;;;;;;;;;;5003499;28;20201;-70
2021/04/01 05:32:13;;;;;;;67.37;44.97;;;;;;;;;;5013632;28;20571;-70
2021/04/01 05:34:59;;;;;;;64.97;45.13;;;;;;;;;;4993837;28;20765;-70
2021/04/01 05:37:44;;;;;;;67.50;45.93;;;;;;;;;;4993240;28;20234;-70
2021/04/01 05:40:28;;;;;;;59.00;42.67;;;;;;;;;;4993693;28;20948;-71
2021/04/01 05:43:19;;;;;;;66.30;45.50;;;;;;;;;;4993675;28;20251;-70
2021/04/01 05:46:09;;;;;;;67.27;44.30;;;;;;;;;;5006054;28;20208;-70
2021/04/01 05:49:03;;;;;;;62.83;43.20;;;;;;;;;;5005568;28;20760;-70
2021/04/01 05:55:56;;;;;;;60.43;38.20;;;;;;;;;;5010082;28;20253;-70
2021/04/01 05:59:02;;;;;;;60.00;44.90;;;;;;;;;;5002614;28;20803;-70
2021/04/01 06:02:02;;;;;;;57.47;39.73;;;;;;;;;;4996361;28;20687;-70
2021/04/01 06:04:51;;;;;;;55.40;37.97;;;;;;;;;;5011425;28;20231;-71
2021/04/01 06:07:41;;;;;;;59.07;37.73;;;;;;;;;;5011127;28;20711;-70
2021/04/01 06:10:26;;;;;;;59.20;36.87;;;;;;;;;;5012633;28;20733;-70
2021/04/01 06:13:11;;;;;;;57.23;37.13;;;;;;;;;;5012883;28;20349;-66
2021/04/01 06:16:01;;;;;;;57.53;37.53;;;;;;;;;;5009935;28;20684;-68
2021/04/01 06:18:52;;;;;;;60.33;37.77;;;;;;;;;;4993345;28;20269;-69
2021/04/01 06:21:41;;;;;;;61.13;38.40;;;;;;;;;;5002482;28;20233;-70
2021/04/01 06:24:27;;;;;;;63.40;39.40;;;;;;;;;;5012572;28;20350;-71
2021/04/01 06:27:16;;;;;;;67.37;43.50;;;;;;;;;;5011710;28;20688;-71
2021/04/01 06:30:13;;;;;;;67.83;43.70;;;;;;;;;;5009632;28;20265;-71
2021/04/01 06:32:59;;;;;;;68.93;44.80;;;;;;;;;;4992618;28;20675;-71
2021/04/01 06:35:45;;;;;;;66.37;44.30;;;;;;;;;;4997844;28;20322;-70
2021/04/01 06:38:35;;;;;;;68.47;44.60;;;;;;;;;;5011838;28;20203;-69
2021/04/01 06:41:22;;;;;;;68.80;44.80;;;;;;;;;;5011527;28;20222;-68
2021/04/01 06:44:16;;;;;;;68.10;45.20;;;;;;;;;;5012344;28;20225;-68
2021/04/01 06:47:06;;;;;;;65.70;43.83;;;;;;;;;;5010436;28;20245;-68
2021/04/01 06:50:03;;;;;;;68.03;47.03;;;;;;;;;;5012111;28;20578;-70
2021/04/01 06:52:58;;;;;;;66.87;46.13;;;;;;;;;;4992397;28;20215;-70
2021/04/01 06:55:46;;;;;;;66.50;44.60;;;;;;;;;;5005720;28;20661;-69
2021/04/01 06:58:37;;;;;;;65.80;46.70;;;;;;;;;;5011853;28;20245;-70
2021/04/01 07:01:28;;;;;;;72.43;46.27;;;;;;;;;;5009365;28;20266;-69
2021/04/01 07:04:13;;;;;;;68.23;46.20;;;;;;;;;;4991901;28;20227;-69
2021/04/01 07:07:03;;;;;;;69.07;47.70;;;;;;;;;;5008126;28;20206;-71
2021/04/01 07:10:02;;;;;;;73.27;49.10;;;;;;;;;;5012055;28;20219;-70
2021/04/01 07:12:49;;;;;;;75.83;50.90;;;;;;;;;;5011241;28;20235;-69
2021/04/01 07:15:39;;;;;;;75.50;51.43;;;;;;;;;;5010721;28;20223;-70
2021/04/01 07:18:33;;;;;;;68.97;50.10;;;;;;;;;;5007568;28;20676;-69
2021/04/01 07:48:59;;;;;;;93.73;65.90;;;;;;;;;;4991632;28;20253;-71
2021/04/01 07:51:57;;;;;;;90.87;61.43;;;;;;;;;;4991452;28;20215;-66
2021/04/01 07:58:06;;;;;;;88.30;63.13;;;;;;;;;;4999221;28;20211;-69
2021/04/01 08:01:01;;;;;;;91.23;62.83;;;;;;;;;;5010694;28;20887;-69
2021/04/01 08:03:54;;;;;;;83.33;60.43;;;;;;;;;;5010918;28;20230;-67
2021/04/01 08:06:40;;;;;;;88.93;62.67;;;;;;;;;;5010613;28;20206;-67
2021/04/01 08:09:25;;;;;;;85.40;63.23;;;;;;;;;;5010371;28;20199;-67
2021/04/01 08:12:21;;;;;;;84.03;60.83;;;;;;;;;;5006608;28;20292;-67
2021/04/01 08:15:08;;;;;;;89.13;69.53;;;;;;;;;;4995417;28;21115;-67
2021/04/01 08:17:56;;;;;;;82.77;62.07;;;;;;;;;;4992803;28;20567;-69
2021/04/01 08:20:42;;;;;;;84.00;62.30;;;;;;;;;;5012138;28;20229;-68
2021/04/01 08:23:30;;;;;;;85.13;62.07;;;;;;;;;;5013446;28;20245;-68
2021/04/01 08:26:20;;;;;;;87.03;61.73;;;;;;;;;;5012644;28;20210;-69
2021/04/01 08:29:23;;;;;;;84.50;64.40;;;;;;;;;;5012807;28;20588;-68
2021/04/01 08:32:42;;;;;;;88.37;63.83;;;;;;;;;;5029079;28;20241;-68
2021/04/01 08:35:27;;;;;;;89.00;65.93;;;;;;;;;;5000214;28;20199;-69
2021/04/01 08:38:12;;;;;;;90.53;67.07;;;;;;;;;;5013836;28;20612;-69
2021/04/01 08:41:02;;;;;;;92.97;67.90;;;;;;;;;;5014397;28;20269;-69
2021/04/01 08:44:00;;;;;;;81.83;59.20;;;;;;;;;;5014226;28;20281;-69
2021/04/01 08:46:47;;;;;;;86.40;68.70;;;;;;;;;;5012404;28;20431;-68
2021/04/01 08:49:35;;;;;;;88.80;66.23;;;;;;;;;;5013708;28;21092;-69
2021/04/01 08:52:23;;;;;;;87.30;65.17;;;;;;;;;;5014636;28;20262;-69
2021/04/01 08:55:11;;;;;;;88.13;64.20;;;;;;;;;;5014239;28;20246;-68
2021/04/01 08:58:00;;;;;;;85.07;61.77;;;;;;;;;;5013642;28;20206;-69
2021/04/01 09:00:45;;;;;;;86.82;70.82;;;;;;;;;;5012913;28;20528;-69
2021/04/01 09:03:31;;;;;;;82.73;63.97;;;;;;;;;;5013938;28;20303;-68
2021/04/01 09:06:18;;;;;;;82.30;61.83;;;;;;;;;;5013281;28;20692;-68
2021/04/01 09:09:05;;;;;;;84.17;61.60;;;;;;;;;;5023374;28;20558;-68
2021/04/01 09:11:53;;;;;;;85.33;62.43;;;;;;;;;;5033761;28;20230;-69
2021/04/01 09:14:41;;;;;;;86.20;62.40;;;;;;;;;;5032959;28;20242;-68
2021/04/01 09:17:29;;;;;;;82.10;60.73;;;;;;;;;;5012452;28;20234;-69
2021/04/01 09:20:17;;;;;;;82.30;62.33;;;;;;;;;;5013418;28;20226;-68
2021/04/01 09:23:04;;;;;;;84.10;62.97;;;;;;;;;;5009734;28;20593;-68
2021/04/01 09:25:52;;;;;;;83.43;61.70;;;;;;;;;;4999066;28;20281;-68
2021/04/01 09:28:38;;;;;;;81.63;59.13;;;;;;;;;;5013312;28;20684;-69
2021/04/01 09:31:26;;;;;;;76.17;60.67;;;;;;;;;;5013093;28;20214;-68
2021/04/01 09:34:11;;;;;;;84.53;59.23;;;;;;;;;;5012858;28;20254;-68
2021/04/01 09:37:06;;;;;;;81.03;61.03;;;;;;;;;;5012851;28;20210;-68
2021/04/01 09:39:53;;;;;;;79.17;59.23;;;;;;;;;;5012136;28;20234;-69
2021/04/01 09:42:42;;;;;;;81.87;62.93;;;;;;;;;;5012157;28;20270;-70
2021/04/01 09:45:27;;;;;;;76.47;63.53;;;;;;;;;;5010978;28;21087;-69
2021/04/01 09:48:13;;;;;;;76.83;58.07;;;;;;;;;;5008495;28;20258;-67
2021/04/01 09:51:00;;;;;;;75.27;58.67;;;;;;;;;;5007262;28;20342;-69
2021/04/01 09:53:51;;;;;;;74.90;57.73;;;;;;;;;;4992595;28;20279;-75
2021/04/01 09:56:36;;;;;;;69.80;56.17;;;;;;;;;;5008487;28;20637;-70
2021/04/01 09:59:23;;;;;;;69.57;53.60;;;;;;;;;;5002489;28;20700;-71
2021/04/01 10:02:09;;;;;;;66.23;49.70;;;;;;;;;;5006613;28;20206;-69
2021/04/01 10:04:56;;;;;;;63.70;46.40;;;;;;;;;;5010749;28;20222;-69
2021/04/01 10:07:50;;;;;;;61.00;44.70;;;;;;;;;;5012478;28;20198;-69
2021/04/01 10:10:36;;;;;;;47.73;35.30;;;;;;;;;;5012946;28;20203;-69
2021/04/01 10:13:22;;;;;;;45.70;31.33;;;;;;;;;;5013215;28;20218;-69
2021/04/01 10:16:20;;;;;;;45.40;33.47;;;;;;;;;;5011966;28;20257;-69
2021/04/01 10:19:06;;;;;;;39.87;30.80;;;;;;;;;;5012887;28;20329;-69
2021/04/01 10:21:51;;;;;;;37.27;28.30;;;;;;;;;;5012457;28;20229;-69
2021/04/01 10:24:37;;;;;;;37.27;25.60;;;;;;;;;;5012655;28;20557;-69
2021/04/01 10:27:28;;;;;;;31.57;22.67;;;;;;;;;;5012343;28;20206;-70
2021/04/01 10:30:13;;;;;;;30.50;25.05;;;;;;;;;;5011326;28;20428;-69
2021/04/01 10:33:04;;;;;;;26.20;21.83;;;;;;;;;;5012550;28;20227;-69
2021/04/01 10:35:48;;;;;;;24.30;18.67;;;;;;;;;;5012425;28;20269;-69
2021/04/01 10:38:35;;;;;;;24.83;17.50;;;;;;;;;;5012542;28;20202;-69
2021/04/01 10:41:20;;;;;;;23.10;17.50;;;;;;;;;;5012285;28;20234;-68
2021/04/01 10:44:10;;;;;;;23.97;15.53;;;;;;;;;;5012321;28;20230;-69
2021/04/01 10:46:55;;;;;;;17.87;12.90;;;;;;;;;;5011957;28;20218;-69
2021/04/01 10:49:40;;;;;;;16.43;12.50;;;;;;;;;;5012410;28;20219;-68
2021/04/01 10:52:31;;;;;;;15.87;10.60;;;;;;;;;;5011847;28;20771;-69
2021/04/01 10:55:17;;;;;;;12.57;9.53;;;;;;;;;;5012087;28;20561;-68
2021/04/01 10:58:09;;;;;;;11.30;8.63;;;;;;;;;;5011849;28;20207;-68
2021/04/01 11:00:54;;;;;;;13.55;8.38;;;;;;;;;;5010642;28;20439;-69
2021/04/01 11:03:43;;;;;;;9.50;6.90;;;;;;;;;;5011776;28;20225;-68
2021/04/01 11:06:28;;;;;;;8.90;5.63;;;;;;;;;;5011459;28;20716;-69
2021/04/01 11:09:12;;;;;;;9.00;6.00;;;;;;;;;;5011918;28;20315;-68
2021/04/01 11:12:13;;;;;;;11.50;5.80;;;;;;;;;;5012221;28;20675;-69
2021/04/01 11:15:01;;;;;;;8.60;5.60;;;;;;;;;;5010672;28;20426;-69
2021/04/01 11:17:50;;;;;;;9.43;4.80;;;;;;;;;;5011095;28;20333;-69
2021/04/01 11:20:35;;;;;;;7.43;4.83;;;;;;;;;;5011350;28;20307;-69
2021/04/01 11:23:21;;;;;;;9.23;5.23;;;;;;;;;;5011264;28;20215;-69
2021/04/01 11:26:05;;;;;;;8.60;4.63;;;;;;;;;;5011311;28;20275;-69
2021/04/01 11:28:51;;;;;;;6.77;4.27;;;;;;;;;;5011774;28;20210;-68
2021/04/01 11:31:35;;;;;;;11.20;4.90;;;;;;;;;;5011660;28;20575;-69
2021/04/01 11:34:20;;;;;;;8.93;4.43;;;;;;;;;;5011551;28;20298;-68
2021/04/01 11:37:05;;;;;;;6.90;4.13;;;;;;;;;;5010940;28;20213;-69
2021/04/01 11:39:55;;;;;;;8.20;4.43;;;;;;;;;;5011298;28;20627;-69
2021/04/01 11:42:40;;;;;;;10.27;4.33;;;;;;;;;;5011198;28;20262;-69
2021/04/01 11:45:33;;;;;;;10.13;4.70;;;;;;;;;;5011008;28;20428;-69
2021/04/01 11:48:17;;;;;;;7.43;3.70;;;;;;;;;;5011113;28;20241;-69
2021/04/01 11:51:02;;;;;;;5.93;3.33;;;;;;;;;;5011328;28;20202;-67
2021/04/01 11:53:46;;;;;;;6.63;3.63;;;;;;;;;;5011091;28;20222;-67
2021/04/01 11:56:33;;;;;;;8.27;3.27;;;;;;;;;;5010724;28;20198;-68
2021/04/01 11:59:20;;;;;;;8.83;4.00;;;;;;;;;;5011262;28;20206;-67
2021/04/01 12:02:08;;;;;;;8.07;3.50;;;;;;;;;;5009959;28;20278;-67
2021/04/01 12:04:56;;;;;;;8.87;3.67;;;;;;;;;;5011051;28;20203;-68
2021/04/01 12:07:40;;;;;;;9.83;3.70;;;;;;;;;;5010558;28;20250;-68
2021/04/01 12:10:24;;;;;;;9.33;3.60;;;;;;;;;;5011083;28;20733;-68
2021/04/01 12:13:09;;;;;;;9.97;3.83;;;;;;;;;;5010803;28;20230;-68
2021/04/01 12:15:53;;;;;;;8.57;3.60;;;;;;;;;;5010857;28;20222;-69
2021/04/01 12:18:40;;;;;;;9.53;4.17;;;;;;;;;;5011015;28;20555;-68
2021/04/01 12:21:25;;;;;;;7.57;3.63;;;;;;;;;;5010786;28;20230;-68
2021/04/01 12:24:10;;;;;;;7.97;3.27;;;;;;;;;;5011030;28;20528;-68
2021/04/01 12:26:58;;;;;;;7.80;3.73;;;;;;;;;;5010740;28;20197;-69
2021/04/01 12:29:47;;;;;;;13.77;3.90;;;;;;;;;;5010948;28;20550;-69
2021/04/01 12:32:32;;;;;;;9.50;3.53;;;;;;;;;;5010640;28;20598;-69
2021/04/01 12:35:18;;;;;;;9.87;4.07;;;;;;;;;;5010545;28;20214;-69
2021/04/01 12:38:04;;;;;;;10.90;4.23;;;;;;;;;;5009338;28;20206;-69
2021/04/01 12:40:49;;;;;;;14.23;4.30;;;;;;;;;;5009488;28;20218;-69
2021/04/01 12:43:34;;;;;;;11.37;4.37;;;;;;;;;;5009824;28;20313;-69
2021/04/01 12:46:19;;;;;;;10.27;4.03;;;;;;;;;;5008803;28;20458;-69
2021/04/01 12:49:03;;;;;;;7.53;3.70;;;;;;;;;;5009778;28;20490;-69
2021/04/01 12:51:52;;;;;;;9.40;3.37;;;;;;;;;;5009597;28;20242;-69
2021/04/01 12:54:40;;;;;;;8.57;2.70;;;;;;;;;;5009770;28;20571;-69
2021/04/01 12:57:25;;;;;;;8.17;2.80;;;;;;;;;;5009209;28;20202;-69
2021/04/01 13:00:11;;;;;;;5.83;2.90;;;;;;;;;;5009667;28;20281;-69
2021/04/01 13:02:55;;;;;;;4.63;2.37;;;;;;;;;;5009310;28;20246;-69
2021/04/01 13:05:41;;;;;;;4.10;2.33;;;;;;;;;;5009553;28;20319;-69
2021/04/01 13:11:31;;;;;;;5.93;2.40;;;;;;;;;;5009532;28;20265;-69
2021/04/01 13:14:16;;;;;;;5.40;2.27;;;;;;;;;;5011020;28;20307;-69
2021/04/01 13:17:00;;;;;;;6.57;2.83;;;;;;;;;;5012279;28;20207;-68
2021/04/01 13:19:44;;;;;;;7.53;3.07;;;;;;;;;;5012834;28;20215;-68
2021/04/01 13:22:32;;;;;;;6.90;2.77;;;;;;;;;;5012577;28;20273;-68
2021/04/01 13:25:17;;;;;;;5.97;2.57;;;;;;;;;;5012734;28;20199;-69
2021/04/01 13:28:03;;;;;;;4.63;2.40;;;;;;;;;;5012272;28;20581;-69
2021/04/01 13:30:50;;;;;;;4.20;2.28;;;;;;;;;;5012495;28;20428;-69
2021/04/01 13:33:46;;;;;;;5.27;2.30;;;;;;;;;;5012204;28;20801;-69
2021/04/01 13:36:33;;;;;;;5.03;2.30;;;;;;;;;;4993591;28;543300;-69
2021/04/01 13:39:20;;;;;;;5.77;2.87;;;;;;;;;;5013375;28;20213;-70
2021/04/01 13:42:10;;;;;;;4.73;2.60;;;;;;;;;;5013160;28;20286;-69
2021/04/01 13:44:56;;;;;;;4.63;2.60;;;;;;;;;;5013431;28;20688;-70
2021/04/01 13:47:42;;;;;;;10.20;3.03;;;;;;;;;;5012966;28;20298;-69
2021/04/01 13:50:29;;;;;;;4.90;2.80;;;;;;;;;;5013333;28;20199;-68
2021/04/01 13:53:21;;;;;;;6.63;2.60;;;;;;;;;;5013212;28;20226;-68
2021/04/01 13:56:13;;;;;;;5.90;2.70;;;;;;;;;;5012470;28;20689;-68
2021/04/01 13:59:21;;;;;;;5.03;2.40;;;;;;;;;;5013273;28;20321;-68
2021/04/01 14:11:13;;;;;;;4.67;2.20;;;;;;;;;;4996053;28;20465;-68
2021/04/01 14:13:58;;;;;;;5.53;2.00;;;;;;;;;;5012754;28;20234;-69
2021/04/01 14:16:43;;;;;;;6.13;2.58;;;;;;;;;;5011460;28;20508;-68
2021/04/01 14:19:28;;;;;;;4.63;2.37;;;;;;;;;;5012883;28;20217;-68
2021/04/01 14:22:12;;;;;;;5.03;2.60;;;;;;;;;;5012384;28;20238;-68
2021/04/01 14:25:01;;;;;;;6.20;2.57;;;;;;;;;;5012158;28;20630;-68
2021/04/01 14:27:48;;;;;;;5.53;2.60;;;;;;;;;;5012674;28;20278;-69
2021/04/01 14:30:35;;;;;;;8.70;2.47;;;;;;;;;;5012710;28;20207;-68
2021/04/01 14:33:21;;;;;;;5.37;2.90;;;;;;;;;;5012522;28;20581;-69
2021/04/01 14:36:07;;;;;;;7.30;2.67;;;;;;;;;;5011962;28;20207;-68
2021/04/01 14:38:51;;;;;;;5.50;2.67;;;;;;;;;;5012563;28;20202;-69
2021/04/01 14:41:39;;;;;;;6.83;2.50;;;;;;;;;;5012280;28;20315;-69
2021/04/01 14:44:25;;;;;;;8.27;2.67;;;;;;;;;;5012728;28;20205;-68
2021/04/01 14:47:11;;;;;;;6.90;2.90;;;;;;;;;;5010854;28;20491;-68
2021/04/01 14:49:56;;;;;;;6.53;2.83;;;;;;;;;;5012009;28;20583;-69
2021/04/01 14:52:42;;;;;;;10.23;3.20;;;;;;;;;;5012294;28;20574;-68
2021/04/01 14:55:27;;;;;;;5.40;2.60;;;;;;;;;;5012206;28;20274;-69
2021/04/01 14:58:11;;;;;;;7.23;2.40;;;;;;;;;;5011862;28;20219;-68
2021/04/01 15:00:56;;;;;;;9.07;3.05;;;;;;;;;;5011356;28;20993;-68
2021/04/01 15:03:42;;;;;;;7.43;2.97;;;;;;;;;;5011910;28;20274;-68
2021/04/01 15:06:27;;;;;;;7.83;2.20;;;;;;;;;;5011750;28;20673;-68
2021/04/01 15:09:12;;;;;;;9.37;2.63;;;;;;;;;;5011997;28;20202;-68
2021/04/01 15:11:56;;;;;;;7.43;2.70;;;;;;;;;;5012168;28;20307;-68
2021/04/01 15:14:41;;;;;;;6.17;2.90;;;;;;;;;;5011852;28;20202;-68
2021/04/01 15:17:26;;;;;;;9.30;3.10;;;;;;;;;;5011369;28;20202;-69
2021/04/01 15:20:12;;;;;;;12.00;3.23;;;;;;;;;;5011539;28;20218;-68
2021/04/01 15:22:57;;;;;;;6.47;3.07;;;;;;;;;;5011596;28;20226;-69
2021/04/01 15:25:41;;;;;;;7.00;2.47;;;;;;;;;;5011557;28;20245;-69
2021/04/01 15:28:26;;;;;;;6.73;3.00;;;;;;;;;;5011269;28;20498;-68
2021/04/01 15:31:11;;;;;;;9.07;3.30;;;;;;;;;;5010971;28;20470;-69
2021/04/01 15:33:55;;;;;;;7.97;2.83;;;;;;;;;;5011554;28;20785;-68
2021/04/01 15:36:40;;;;;;;6.80;2.60;;;;;;;;;;5010650;28;20254;-69
2021/04/01 15:39:25;;;;;;;7.33;2.70;;;;;;;;;;5011440;28;20219;-69
2021/04/01 15:42:09;;;;;;;6.17;2.37;;;;;;;;;;5011110;28;20608;-69
2021/04/01 15:44:54;;;;;;;9.30;3.28;;;;;;;;;;5011211;28;20410;-68
2021/04/01 15:47:38;;;;;;;7.73;2.57;;;;;;;;;;5011069;28;20210;-68
2021/04/01 15:50:23;;;;;;;6.40;2.97;;;;;;;;;;5011425;28;20264;-68
2021/04/01 15:53:09;;;;;;;7.63;2.83;;;;;;;;;;5011309;28;20307;-68
2021/04/01 15:55:55;;;;;;;8.83;3.00;;;;;;;;;;5011125;28;20207;-68
2021/04/01 15:58:39;;;;;;;8.23;2.70;;;;;;;;;;5011009;28;20673;-68
2021/04/01 16:01:24;;;;;;;6.70;2.83;;;;;;;;;;5011033;28;20233;-68
2021/04/01 16:04:08;;;;;;;5.33;2.60;;;;;;;;;;5011121;28;20206;-68
2021/04/01 16:06:53;;;;;;;9.90;3.30;;;;;;;;;;5010476;28;20199;-68
2021/04/01 16:09:38;;;;;;;7.73;3.20;;;;;;;;;;5011172;28;20201;-68
2021/04/01 16:12:24;;;;;;;7.17;2.80;;;;;;;;;;5010700;28;20592;-68
2021/04/01 16:15:09;;;;;;;9.30;3.47;;;;;;;;;;5010990;28;20218;-68
2021/04/01 16:17:53;;;;;;;6.17;2.47;;;;;;;;;;5010541;28;20205;-68
2021/04/01 16:20:38;;;;;;;8.33;3.00;;;;;;;;;;5010765;28;20696;-68
2021/04/01 16:23:24;;;;;;;7.33;2.90;;;;;;;;;;5010616;28;20250;-68
2021/04/01 16:26:09;;;;;;;6.80;3.10;;;;;;;;;;5010483;28;20229;-68
2021/04/01 16:28:53;;;;;;;8.97;3.30;;;;;;;;;;5010826;28;20194;-68
2021/04/01 16:31:39;;;;;;;6.53;2.83;;;;;;;;;;5009589;28;20403;-68
2021/04/01 16:34:24;;;;;;;8.07;3.50;;;;;;;;;;5011024;28;20203;-68
2021/04/01 16:37:08;;;;;;;8.47;3.43;;;;;;;;;;5010172;28;20250;-68
2021/04/01 16:39:55;;;;;;;12.57;3.40;;;;;;;;;;5011119;28;20559;-68
2021/04/01 16:42:40;;;;;;;12.63;3.70;;;;;;;;;;5010770;28;20392;-68
2021/04/01 16:45:25;;;;;;;11.50;3.90;;;;;;;;;;5010807;28;20221;-68
2021/04/01 16:48:09;;;;;;;8.67;3.40;;;;;;;;;;5010376;28;20365;-68
2021/04/01 16:50:54;;;;;;;9.07;3.23;;;;;;;;;;5014811;28;20289;-68
2021/04/01 16:53:42;;;;;;;9.90;3.47;;;;;;;;;;5014572;28;20729;-67
2021/04/01 16:56:27;;;;;;;10.17;3.67;;;;;;;;;;5013888;28;20210;-68
2021/04/01 16:59:15;;;;;;;9.00;3.87;;;;;;;;;;5014451;28;20276;-68
2021/04/01 17:01:59;;;;;;;9.73;3.92;;;;;;;;;;5012660;28;20808;-68
2021/04/01 17:04:45;;;;;;;9.47;3.20;;;;;;;;;;5014540;28;20286;-68
2021/04/01 17:07:31;;;;;;;6.40;2.70;;;;;;;;;;5013610;28;20210;-68
2021/04/01 17:10:16;;;;;;;8.07;2.63;;;;;;;;;;5014510;28;20218;-68
2021/04/01 17:13:00;;;;;;;7.30;2.60;;;;;;;;;;5014033;28;20237;-69
2021/04/01 17:15:46;;;;;;;8.70;3.58;;;;;;;;;;5013070;28;20915;-68
2021/04/01 17:18:32;;;;;;;6.57;3.17;;;;;;;;;;5013497;28;20264;-68